createdAt,value
2022-08-11T00:00:13.410Z,2.90
2022-08-11T00:03:08.680Z,3.40
2022-08-11T00:05:50.056Z,2.90
2022-08-11T00:08:27.240Z,2.80
2022-08-11T00:11:00.882Z,2.30
2022-08-11T00:13:40.500Z,2.70
2022-08-11T00:16:17.928Z,2.50
2022-08-11T00:18:51.653Z,2.70
2022-08-11T00:22:03.107Z,3.30
2022-08-11T00:24:17.395Z,2.90
2022-08-11T00:26:52.684Z,2.70
2022-08-11T00:29:24.652Z,2.70
2022-08-11T00:31:57.241Z,2.30
2022-08-11T00:34:32.140Z,2.10
2022-08-11T00:37:06.442Z,2.80
2022-08-11T00:39:48.013Z,2.40
2022-08-11T00:42:36.766Z,2.70
2022-08-11T00:45:14.977Z,2.60
2022-08-11T00:47:58.442Z,2.20
2022-08-11T00:50:42.141Z,2.60
2022-08-11T00:53:40.059Z,2.80
2022-08-11T00:56:50.804Z,2.40
2022-08-11T00:59:50.225Z,2.30
2022-08-11T01:02:30.701Z,2.40
2022-08-11T01:05:25.521Z,2.80
2022-08-11T01:08:29.428Z,2.90
2022-08-11T01:11:34.097Z,2.90
2022-08-11T01:14:34.167Z,2.40
2022-08-11T01:17:45.380Z,2.30
2022-08-11T01:20:48.722Z,2.50
2022-08-11T01:23:53.447Z,2.40
2022-08-11T01:27:18.967Z,2.00
2022-08-11T01:30:24.100Z,2.50
2022-08-11T01:33:35.287Z,2.30
2022-08-11T01:36:38.924Z,2.40
2022-08-11T01:39:37.768Z,2.20
2022-08-11T01:42:57.370Z,2.20
2022-08-11T01:45:37.714Z,2.30
2022-08-11T01:48:15.895Z,2.40
2022-08-11T01:51:03.166Z,2.40
2022-08-11T01:53:47.200Z,2.00
2022-08-11T01:56:33.251Z,2.60
2022-08-11T01:59:15.509Z,2.50
2022-08-11T02:02:03.817Z,2.70
2022-08-11T02:04:39.488Z,2.50
2022-08-11T02:07:22.295Z,2.70
2022-08-11T02:10:35.589Z,2.30
2022-08-11T02:13:20.479Z,2.90
2022-08-11T02:16:18.300Z,2.20
2022-08-11T02:19:11.976Z,2.20
2022-08-11T02:22:09.226Z,2.30
2022-08-11T02:24:48.243Z,2.20
2022-08-11T02:27:23.658Z,2.30
2022-08-11T02:30:05.144Z,2.40
2022-08-11T02:32:59.874Z,2.20
2022-08-11T02:35:42.879Z,2.30
2022-08-11T02:38:27.683Z,2.30
2022-08-11T02:41:30.565Z,2.80
2022-08-11T02:44:32.307Z,2.70
2022-08-11T02:47:09.803Z,2.40
2022-08-11T02:50:00.003Z,2.30
2022-08-11T02:52:46.430Z,2.10
2022-08-11T02:55:56.854Z,2.30
2022-08-11T02:58:17.676Z,2.60
2022-08-11T03:01:02.323Z,2.50
2022-08-11T03:03:40.318Z,2.20
2022-08-11T03:06:20.824Z,2.20
2022-08-11T03:08:57.529Z,2.30
2022-08-11T03:12:04.621Z,2.30
2022-08-11T03:15:03.787Z,2.40
2022-08-11T03:17:41.425Z,2.40
2022-08-11T03:20:38.365Z,2.30
2022-08-11T03:23:19.831Z,2.20
2022-08-11T03:25:59.849Z,2.40
2022-08-11T03:28:35.563Z,2.00
2022-08-11T03:31:25.051Z,2.30
2022-08-11T03:37:34.971Z,2.10
2022-08-11T03:42:50.341Z,2.50
2022-08-11T03:45:40.829Z,2.00
2022-08-11T03:48:29.344Z,2.10
2022-08-11T03:51:14.619Z,2.10
2022-08-11T03:54:03.269Z,2.30
2022-08-11T03:57:15.861Z,2.40
2022-08-11T04:00:24.868Z,2.10
2022-08-11T04:03:31.371Z,2.50
2022-08-11T04:06:30.674Z,2.50
2022-08-11T04:09:49.315Z,2.30
2022-08-11T04:12:43.137Z,2.30
2022-08-11T04:15:56.064Z,2.30
2022-08-11T04:19:04.352Z,1.90
2022-08-11T04:24:50.587Z,2.20
2022-08-11T04:27:47.927Z,2.20
2022-08-11T04:30:26.774Z,2.50
2022-08-11T04:33:42.677Z,2.20
2022-08-11T04:36:59.818Z,2.00
2022-08-11T04:39:44.512Z,2.20
2022-08-11T04:43:10.193Z,2.50
2022-08-11T04:45:57.530Z,2.10
2022-08-11T04:49:13.670Z,3.20
2022-08-11T04:52:40.126Z,2.80
2022-08-11T04:56:01.157Z,3.00
2022-08-11T04:59:07.956Z,2.60
2022-08-11T05:01:54.873Z,2.80
2022-08-11T05:05:08.772Z,2.10
2022-08-11T05:08:21.923Z,2.30
2022-08-11T05:11:21.996Z,2.40
2022-08-11T05:14:31.363Z,2.30
2022-08-11T05:17:25.445Z,2.60
2022-08-11T05:20:14.465Z,2.20
2022-08-11T05:23:09.138Z,2.10
2022-08-11T05:26:44.461Z,2.10
2022-08-11T05:29:19.982Z,2.10
2022-08-11T05:32:18.517Z,1.90
2022-08-11T05:34:54.468Z,1.90
2022-08-11T05:37:39.920Z,2.60
2022-08-11T05:40:32.070Z,2.40
2022-08-11T05:43:25.354Z,2.50
2022-08-11T05:46:19.843Z,2.10
2022-08-11T05:49:10.309Z,2.00
2022-08-11T05:52:05.608Z,1.80
2022-08-11T05:55:07.090Z,2.40
2022-08-11T05:57:51.315Z,2.20
2022-08-11T06:00:24.517Z,2.40
2022-08-11T06:03:00.970Z,1.90
2022-08-11T06:05:44.062Z,2.00
2022-08-11T06:08:16.602Z,2.00
2022-08-11T06:10:48.146Z,1.80
2022-08-11T06:13:22.722Z,2.30
2022-08-11T06:15:55.986Z,2.00
2022-08-11T06:18:27.903Z,1.90
2022-08-11T06:21:00.786Z,2.10
2022-08-11T06:23:36.262Z,2.00
2022-08-11T06:26:11.386Z,1.80
2022-08-11T06:28:46.143Z,1.70
2022-08-11T06:31:20.641Z,2.00
2022-08-11T06:34:01.236Z,1.60
2022-08-11T06:36:36.799Z,1.50
2022-08-11T06:39:20.355Z,1.60
2022-08-11T06:41:59.964Z,1.70
2022-08-11T06:44:40.421Z,1.50
2022-08-11T06:47:17.478Z,1.70
2022-08-11T06:50:07.014Z,1.40
2022-08-11T06:52:40.122Z,1.80
2022-08-11T06:55:56.215Z,1.70
2022-08-11T06:58:24.843Z,1.70
2022-08-11T07:00:59.260Z,2.10
2022-08-11T07:03:38.057Z,1.50
2022-08-11T07:06:23.461Z,1.60
2022-08-11T07:09:29.781Z,1.50
2022-08-11T07:13:00.097Z,1.60
2022-08-11T07:16:12.802Z,1.60
2022-08-11T07:18:56.926Z,1.50
2022-08-11T07:22:02.374Z,1.40
2022-08-11T07:24:59.135Z,1.70
2022-08-11T07:28:01.201Z,1.70
2022-08-11T07:30:35.731Z,1.90
2022-08-11T07:33:08.526Z,1.40
2022-08-11T07:35:44.664Z,1.70
2022-08-11T07:38:25.356Z,1.90
2022-08-11T07:40:59.442Z,1.80
2022-08-11T07:43:31.209Z,1.40
2022-08-11T07:46:23.483Z,1.60
2022-08-11T07:49:13.535Z,1.50
2022-08-11T07:52:03.629Z,1.40
2022-08-11T07:54:36.260Z,1.30
2022-08-11T07:58:00.162Z,1.50
2022-08-11T08:00:38.279Z,1.50
2022-08-11T08:03:28.164Z,1.70
2022-08-11T08:06:35.863Z,1.20
2022-08-11T08:09:27.451Z,1.40
2022-08-11T08:12:18.691Z,1.70
2022-08-11T08:15:07.721Z,1.20
2022-08-11T08:18:09.777Z,1.30
2022-08-11T08:20:45.981Z,1.30
2022-08-11T08:23:18.579Z,1.30
2022-08-11T08:25:53.125Z,1.40
2022-08-11T08:28:26.903Z,1.40
2022-08-11T08:31:02.043Z,1.10
2022-08-11T08:33:35.025Z,1.70
2022-08-11T08:36:15.476Z,1.60
2022-08-11T08:38:51.250Z,1.60
2022-08-11T08:41:24.191Z,1.70
2022-08-11T08:44:20.962Z,1.40
2022-08-11T08:46:55.759Z,1.60
2022-08-11T08:49:33.363Z,1.20
2022-08-11T08:52:27.814Z,1.70
2022-08-11T08:55:06.320Z,1.50
2022-08-11T08:57:41.595Z,1.50
2022-08-11T09:00:20.791Z,1.40
2022-08-11T09:02:55.363Z,1.40
2022-08-11T09:05:27.371Z,1.40
2022-08-11T09:07:58.856Z,1.50
2022-08-11T09:10:31.529Z,1.30
2022-08-11T09:13:05.691Z,1.30
2022-08-11T09:15:37.987Z,1.10
2022-08-11T09:18:11.179Z,1.00
2022-08-11T09:20:42.768Z,1.30
2022-08-11T09:26:40.594Z,1.10
2022-08-11T09:29:13.920Z,1.20
2022-08-11T09:31:45.655Z,1.20
2022-08-11T09:34:17.874Z,1.10
2022-08-11T09:37:07.623Z,1.10
2022-08-11T09:39:59.792Z,0.90
2022-08-11T09:42:44.772Z,1.10
2022-08-11T09:45:17.749Z,0.90
2022-08-11T09:47:49.587Z,1.20
2022-08-11T09:50:21.226Z,1.10
2022-08-11T09:53:34.917Z,1.00
2022-08-11T09:55:47.061Z,1.00
2022-08-11T09:58:42.807Z,1.10
2022-08-11T10:01:27.275Z,1.60
2022-08-11T10:04:05.601Z,1.00
2022-08-11T10:06:56.414Z,1.30
2022-08-11T10:09:28.342Z,2.10
2022-08-11T10:12:03.056Z,1.10
2022-08-11T10:14:53.285Z,1.10
2022-08-11T10:17:25.732Z,1.20
2022-08-11T10:20:04.811Z,1.30
2022-08-11T10:22:55.998Z,0.90
2022-08-11T10:25:56.066Z,1.00
2022-08-11T10:28:33.466Z,0.90
2022-08-11T10:31:38.956Z,1.00
2022-08-11T10:34:26.698Z,1.10
2022-08-11T10:37:03.507Z,0.70
2022-08-11T10:39:35.888Z,1.10
2022-08-11T10:42:47.999Z,0.80
2022-08-11T10:45:35.436Z,1.00
2022-08-11T10:48:15.181Z,0.90
2022-08-11T10:51:07.995Z,1.00
2022-08-11T10:53:58.642Z,1.00
2022-08-11T10:56:49.583Z,0.70
2022-08-11T10:59:21.886Z,1.00
2022-08-11T11:01:55.909Z,1.10
2022-08-11T11:04:40.901Z,1.00
2022-08-11T11:07:20.650Z,1.00
2022-08-11T11:09:56.082Z,0.90
2022-08-11T11:12:51.571Z,0.80
2022-08-11T11:15:50.131Z,0.70
2022-08-11T11:18:25.327Z,1.10
2022-08-11T11:20:58.606Z,0.80
2022-08-11T11:23:35.058Z,0.80
2022-08-11T11:26:31.437Z,1.20
2022-08-11T11:29:36.380Z,0.90
2022-08-11T11:32:19.021Z,0.80
2022-08-11T11:35:23.510Z,0.90
2022-08-11T11:38:04.147Z,0.90
2022-08-11T11:40:38.661Z,0.80
2022-08-11T11:43:09.708Z,0.80
2022-08-11T11:45:43.877Z,1.00
2022-08-11T11:48:14.794Z,0.90
2022-08-11T11:50:46.023Z,1.00
2022-08-11T11:53:17.167Z,0.90
2022-08-11T11:55:48.964Z,0.90
2022-08-11T11:58:37.791Z,0.90
2022-08-11T12:01:20.085Z,1.10
2022-08-11T12:03:54.628Z,1.00
2022-08-11T12:06:28.040Z,0.90
2022-08-11T12:09:01.350Z,1.00
2022-08-11T12:11:50.915Z,1.20
2022-08-11T12:14:25.767Z,1.30
2022-08-11T12:16:58.698Z,0.90
2022-08-11T12:19:35.718Z,1.00
2022-08-11T12:22:25.273Z,1.10
2022-08-11T12:25:13.921Z,0.90
2022-08-11T12:27:45.810Z,1.00
2022-08-11T12:30:17.380Z,1.00
2022-08-11T12:32:49.246Z,1.00
2022-08-11T12:35:20.992Z,1.00
2022-08-11T12:38:03.815Z,1.00
2022-08-11T12:41:16.598Z,1.00
2022-08-11T12:44:07.698Z,1.10
2022-08-11T12:46:44.404Z,0.80
2022-08-11T12:49:41.995Z,1.20
2022-08-11T12:52:23.520Z,1.00
2022-08-11T12:55:00.492Z,0.70
2022-08-11T12:57:54.214Z,1.00
2022-08-11T13:00:44.303Z,0.90
2022-08-11T13:03:34.007Z,1.10
2022-08-11T13:06:06.786Z,0.90
2022-08-11T13:08:40.455Z,1.00
2022-08-11T13:11:55.549Z,0.90
2022-08-11T13:14:23.101Z,1.00
2022-08-11T13:17:08.435Z,1.00
2022-08-11T13:19:47.453Z,1.10
2022-08-11T13:25:44.301Z,1.10
2022-08-11T13:28:15.510Z,1.00
2022-08-11T13:31:04.328Z,0.80
2022-08-11T13:33:37.093Z,1.10
2022-08-11T13:36:11.333Z,1.20
2022-08-11T13:38:49.870Z,1.30
2022-08-11T13:41:42.648Z,1.20
2022-08-11T13:44:23.185Z,1.20
2022-08-11T13:47:04.662Z,1.10
2022-08-11T13:49:40.346Z,1.10
2022-08-11T13:52:14.683Z,1.10
2022-08-11T13:54:49.153Z,1.00
2022-08-11T13:58:08.297Z,1.40
2022-08-11T14:00:26.867Z,1.30
2022-08-11T14:03:00.564Z,1.10
2022-08-11T14:05:38.560Z,1.40
2022-08-11T14:08:37.686Z,1.20
2022-08-11T14:12:22.940Z,1.40
2022-08-11T14:14:23.845Z,1.60
2022-08-11T14:16:57.839Z,1.20
2022-08-11T14:19:30.454Z,1.10
2022-08-11T14:22:10.203Z,1.00
2022-08-11T14:24:42.748Z,1.40
2022-08-11T14:27:39.089Z,1.00
2022-08-11T14:30:28.963Z,1.00
2022-08-11T14:33:00.164Z,1.00
2022-08-11T14:35:31.439Z,1.20
2022-08-11T14:38:05.403Z,1.00
2022-08-11T14:40:55.013Z,1.20
2022-08-11T14:44:13.302Z,1.30
2022-08-11T14:46:58.590Z,1.20
2022-08-11T14:49:31.478Z,1.10
2022-08-11T14:52:03.265Z,1.00
2022-08-11T14:54:51.999Z,0.90
2022-08-11T15:00:18.589Z,1.10
2022-08-11T15:03:21.490Z,0.90
2022-08-11T15:05:58.325Z,1.20
2022-08-11T15:08:49.407Z,1.10
2022-08-11T15:11:48.841Z,0.90
2022-08-11T15:14:55.971Z,0.70
2022-08-11T15:17:29.456Z,1.10
2022-08-11T15:20:36.813Z,1.10
2022-08-11T15:23:27.524Z,1.00
2022-08-11T15:26:01.894Z,0.90
2022-08-11T15:28:55.642Z,0.80
2022-08-11T15:31:49.259Z,0.80
2022-08-11T15:34:44.428Z,2.00
2022-08-11T15:37:27.379Z,1.10
2022-08-11T15:40:31.586Z,1.30
2022-08-11T15:43:29.135Z,1.00
2022-08-11T15:46:08.049Z,1.00
2022-08-11T15:48:48.463Z,0.90
2022-08-11T15:51:29.496Z,0.90
2022-08-11T15:54:09.032Z,0.80
2022-08-11T15:56:45.681Z,0.90
2022-08-11T15:59:45.517Z,1.10
2022-08-11T16:02:39.088Z,1.00
2022-08-11T16:05:14.279Z,0.80
2022-08-11T16:08:07.307Z,1.00
2022-08-11T16:10:41.242Z,1.10
2022-08-11T16:13:34.136Z,0.70
2022-08-11T16:16:15.300Z,1.00
2022-08-11T16:18:52.177Z,0.80
2022-08-11T16:21:35.001Z,0.90
2022-08-11T16:26:38.768Z,0.70
2022-08-11T16:27:12.958Z,0.90
2022-08-11T16:29:47.943Z,0.90
2022-08-11T16:32:23.373Z,1.20
2022-08-11T16:35:14.656Z,1.00
2022-08-11T16:38:04.291Z,1.00
2022-08-11T16:40:36.705Z,1.00
2022-08-11T16:43:28.576Z,0.90
2022-08-11T16:46:18.291Z,0.80
2022-08-11T16:48:50.751Z,1.00
2022-08-11T16:51:22.441Z,1.00
2022-08-11T16:54:05.972Z,0.90
2022-08-11T16:56:43.327Z,0.90
2022-08-11T16:59:21.823Z,0.80
2022-08-11T17:01:57.065Z,0.90
2022-08-11T17:04:56.654Z,0.90
2022-08-11T17:07:47.789Z,0.90
2022-08-11T17:10:51.990Z,1.10
2022-08-11T17:13:29.197Z,0.90
2022-08-11T17:16:08.831Z,1.00
2022-08-11T17:18:46.903Z,1.10
2022-08-11T17:21:27.435Z,0.80
2022-08-11T17:24:06.399Z,1.30
2022-08-11T17:26:57.084Z,0.80
2022-08-11T17:29:31.787Z,0.80
2022-08-11T17:32:23.147Z,0.80
2022-08-11T17:35:15.461Z,1.00
2022-08-11T17:37:48.098Z,1.10
2022-08-11T17:40:24.765Z,0.70
2022-08-11T17:43:15.655Z,0.90
2022-08-11T17:46:20.363Z,0.80
2022-08-11T17:48:51.947Z,1.00
2022-08-11T17:51:38.316Z,0.80
2022-08-11T17:54:28.290Z,0.80
2022-08-11T17:57:20.163Z,0.80
2022-08-11T17:59:56.942Z,0.80
2022-08-11T18:02:50.023Z,1.00
2022-08-11T18:05:22.864Z,0.70
2022-08-11T18:08:14.250Z,0.90
2022-08-11T18:11:04.332Z,1.00
2022-08-11T18:13:55.679Z,2.80
2022-08-11T18:16:44.330Z,0.90
2022-08-11T18:19:33.207Z,1.40
2022-08-11T18:22:27.549Z,1.00
2022-08-11T18:25:20.475Z,1.00
2022-08-11T18:28:13.940Z,1.10
2022-08-11T18:31:05.311Z,1.00
2022-08-11T18:34:08.356Z,1.10
2022-08-11T18:37:04.405Z,1.10
2022-08-11T18:39:56.637Z,1.10
2022-08-11T18:42:48.478Z,1.40
2022-08-11T18:45:45.897Z,1.60
2022-08-11T18:48:40.615Z,0.90
2022-08-11T18:51:37.051Z,1.10
2022-08-11T18:57:19.892Z,1.00
2022-08-11T19:00:11.537Z,1.40
2022-08-11T19:03:01.448Z,1.40
2022-08-11T19:06:31.628Z,1.10
2022-08-11T19:09:10.876Z,1.40
2022-08-11T19:12:00.047Z,1.30
2022-08-11T19:17:46.040Z,1.10
2022-08-11T19:20:38.319Z,1.00
2022-08-11T19:23:29.862Z,1.40
2022-08-11T19:26:20.280Z,1.20
2022-08-11T19:30:07.832Z,1.10
2022-08-11T19:32:20.155Z,1.30
2022-08-11T19:35:09.673Z,1.50
2022-08-11T19:37:59.530Z,1.40
2022-08-11T19:40:49.014Z,1.90
2022-08-11T19:43:39.109Z,1.60
2022-08-11T19:46:29.577Z,1.40
2022-08-11T23:04:55.582Z,1.90
2022-08-11T23:07:51.047Z,1.60
2022-08-11T23:10:41.659Z,1.80
2022-08-11T23:13:30.534Z,1.80
2022-08-11T23:16:19.418Z,1.70
2022-08-11T23:19:08.777Z,1.70
2022-08-11T23:21:57.823Z,1.90
2022-08-11T23:27:34.349Z,1.50
2022-08-11T23:30:24.385Z,1.50
2022-08-11T23:33:18.489Z,1.20
2022-08-11T23:36:10.524Z,1.10
2022-08-11T23:39:19.811Z,0.90
2022-08-11T23:42:08.796Z,1.10
2022-08-11T23:44:57.319Z,1.40
2022-08-11T23:47:50.738Z,1.30
2022-08-11T23:50:40.863Z,1.20
2022-08-11T23:53:31.052Z,1.40
2022-08-11T23:56:21.978Z,1.40
2022-08-11T23:59:11.490Z,1.20
